createdAt,value
2019-02-21T00:01:44.772Z,99422.00
2019-02-21T00:04:14.625Z,99418.00
2019-02-21T00:06:44.413Z,99430.00
2019-02-21T00:09:13.939Z,99420.00
2019-02-21T00:11:43.686Z,99415.00
2019-02-21T00:14:13.362Z,99418.00
2019-02-21T00:16:43.243Z,99414.00
2019-02-21T00:19:13.071Z,99427.00
2019-02-21T00:21:42.796Z,99429.00
2019-02-21T00:24:12.624Z,99427.00
2019-02-21T00:26:44.187Z,99438.00
2019-02-21T00:29:13.753Z,99434.00
2019-02-21T00:31:43.395Z,99441.00
2019-02-21T00:34:13.091Z,99439.00
2019-02-21T00:36:42.911Z,99441.00
2019-02-21T00:39:12.840Z,99439.00
2019-02-21T00:41:42.641Z,99445.00
2019-02-21T00:44:12.359Z,99449.00
2019-02-21T00:46:42.160Z,99442.00
2019-02-21T00:49:11.989Z,99446.00
2019-02-21T00:51:41.781Z,99447.00
2019-02-21T00:54:11.602Z,99451.00
2019-02-21T00:56:41.545Z,99450.00
2019-02-21T00:59:11.375Z,99466.00
2019-02-21T01:01:41.039Z,99466.00
2019-02-21T01:04:13.740Z,99460.00
2019-02-21T01:06:43.510Z,99459.00
2019-02-21T01:09:13.364Z,99457.00
2019-02-21T01:11:42.989Z,99450.00
2019-02-21T01:14:16.025Z,99455.00
2019-02-21T01:16:46.004Z,99453.00
2019-02-21T01:19:15.763Z,99454.00
2019-02-21T01:21:45.386Z,99450.00
2019-02-21T01:24:15.266Z,99459.00
2019-02-21T01:26:45.199Z,99456.00
2019-02-21T01:29:14.838Z,99455.00
2019-02-21T01:31:44.844Z,99459.00
2019-02-21T01:34:14.658Z,99458.00
2019-02-21T01:36:44.457Z,99460.00
2019-02-21T01:39:15.793Z,99451.00
2019-02-21T01:41:45.538Z,99463.00
2019-02-21T01:44:15.380Z,99453.00
2019-02-21T01:46:45.029Z,99457.00
2019-02-21T01:49:14.906Z,99457.00
2019-02-21T01:51:46.026Z,99455.00
2019-02-21T01:54:16.031Z,99451.00
2019-02-21T01:56:46.133Z,99446.00
2019-02-21T01:59:15.773Z,99446.00
2019-02-21T02:01:45.558Z,99443.00
2019-02-21T02:04:16.819Z,99436.00
2019-02-21T02:06:46.931Z,99435.00
2019-02-21T02:09:16.590Z,99443.00
2019-02-21T02:11:47.787Z,99437.00
2019-02-21T02:14:17.863Z,99438.00
2019-02-21T02:16:47.518Z,99438.00
2019-02-21T02:19:17.378Z,99439.00
2019-02-21T02:21:47.560Z,99432.00
2019-02-21T02:24:17.785Z,99433.00
2019-02-21T02:26:47.869Z,99436.00
2019-02-21T02:29:17.700Z,99441.00
2019-02-21T02:31:48.441Z,99446.00
2019-02-21T02:34:18.380Z,99444.00
2019-02-21T02:36:48.081Z,99444.00
2019-02-21T02:39:17.878Z,99434.00
2019-02-21T02:41:47.705Z,99446.00
2019-02-21T02:44:17.624Z,99445.00
2019-02-21T02:46:47.350Z,99454.00
2019-02-21T02:49:17.056Z,99454.00
2019-02-21T02:51:46.969Z,99452.00
2019-02-21T02:54:19.738Z,99456.00
2019-02-21T02:56:49.471Z,99452.00
2019-02-21T02:59:19.343Z,99449.00
2019-02-21T03:01:49.196Z,99451.00
2019-02-21T03:04:18.960Z,99459.00
2019-02-21T03:06:48.716Z,99457.00
2019-02-21T03:09:18.410Z,99455.00
2019-02-21T03:11:51.860Z,99453.00
2019-02-21T03:14:21.409Z,99456.00
2019-02-21T03:16:52.561Z,99457.00
2019-02-21T03:19:22.379Z,99461.00
2019-02-21T03:21:52.090Z,99453.00
2019-02-21T03:24:21.811Z,99462.00
2019-02-21T03:26:51.717Z,99457.00
2019-02-21T03:29:21.453Z,99462.00
2019-02-21T03:31:55.227Z,99461.00
2019-02-21T03:34:22.969Z,99462.00
2019-02-21T03:36:52.804Z,99457.00
2019-02-21T03:39:22.652Z,99462.00
2019-02-21T03:41:52.426Z,99462.00
2019-02-21T03:44:22.148Z,99469.00
2019-02-21T03:46:53.094Z,99474.00
2019-02-21T03:49:23.105Z,99469.00
2019-02-21T03:51:54.534Z,99472.00
2019-02-21T03:54:24.197Z,99475.00
2019-02-21T03:56:54.695Z,99478.00
2019-02-21T03:59:26.150Z,99474.00
2019-02-21T04:02:04.834Z,99490.00
2019-02-21T04:04:27.313Z,99489.00
2019-02-21T04:06:57.129Z,99477.00
2019-02-21T04:09:27.145Z,99478.00
2019-02-21T04:11:57.148Z,99477.00
2019-02-21T04:14:27.654Z,99470.00
2019-02-21T04:16:57.911Z,99488.00
2019-02-21T04:19:27.643Z,99478.00
2019-02-21T04:21:57.440Z,99478.00
2019-02-21T04:24:27.456Z,99482.00
2019-02-21T04:26:56.987Z,99468.00
2019-02-21T04:29:27.947Z,99480.00
2019-02-21T04:31:57.529Z,99477.00
2019-02-21T04:34:27.835Z,99476.00
2019-02-21T04:36:57.734Z,99481.00
2019-02-21T04:39:27.549Z,99476.00
2019-02-21T04:41:57.186Z,99480.00
2019-02-21T04:44:27.227Z,99485.00
2019-02-21T04:46:57.114Z,99498.00
2019-02-21T04:49:28.615Z,99491.00
2019-02-21T04:51:58.370Z,99497.00
2019-02-21T04:54:28.193Z,99485.00
2019-02-21T04:57:00.652Z,99487.00
2019-02-21T04:59:30.657Z,99487.00
2019-02-21T05:02:00.598Z,99480.00
2019-02-21T05:04:30.329Z,99477.00
2019-02-21T05:07:00.015Z,99478.00
2019-02-21T05:09:29.965Z,99473.00
2019-02-21T05:11:59.946Z,99478.00
2019-02-21T05:14:29.847Z,99476.00
2019-02-21T05:17:00.683Z,99474.00
2019-02-21T05:19:30.767Z,99469.00
2019-02-21T05:22:00.547Z,99471.00
2019-02-21T05:24:30.316Z,99473.00
2019-02-21T05:27:08.534Z,99467.00
2019-02-21T05:29:38.355Z,99465.00
2019-02-21T05:32:41.172Z,99467.00
2019-02-21T05:35:38.726Z,99472.00
2019-02-21T05:38:16.128Z,99470.00
2019-02-21T05:41:14.493Z,99480.00
2019-02-21T05:44:01.993Z,99469.00
2019-02-21T05:46:49.128Z,99471.00
2019-02-21T05:49:36.361Z,99479.00
2019-02-21T05:52:55.117Z,99466.00
2019-02-21T05:55:56.269Z,99472.00
2019-02-21T05:58:56.987Z,99475.00
2019-02-21T06:01:52.571Z,99485.00
2019-02-21T06:04:29.200Z,99490.00
2019-02-21T06:07:29.938Z,99481.00
2019-02-21T06:10:27.037Z,99495.00
2019-02-21T06:13:08.288Z,99495.00
2019-02-21T06:15:59.796Z,99499.00
2019-02-21T06:18:54.407Z,99498.00
2019-02-21T06:21:41.388Z,99506.00
2019-02-21T06:24:33.133Z,99499.00
2019-02-21T06:27:12.247Z,99506.00
2019-02-21T06:29:58.351Z,99519.00
2019-02-21T06:32:28.052Z,99519.00
2019-02-21T06:34:57.784Z,99509.00
2019-02-21T06:37:27.609Z,99517.00
2019-02-21T06:39:57.720Z,99516.00
2019-02-21T06:42:27.267Z,99510.00
2019-02-21T06:44:57.018Z,99521.00
2019-02-21T06:47:27.087Z,99511.00
2019-02-21T06:49:58.696Z,99517.00
2019-02-21T06:52:28.469Z,99516.00
2019-02-21T06:54:58.660Z,99537.00
2019-02-21T06:57:28.465Z,99518.00
2019-02-21T06:59:58.196Z,99518.00
2019-02-21T07:02:28.400Z,99527.00
2019-02-21T07:04:58.102Z,99524.00
2019-02-21T07:07:28.139Z,99522.00
2019-02-21T07:09:57.828Z,99528.00
2019-02-21T07:12:28.018Z,99525.00
2019-02-21T07:14:57.776Z,99541.00
2019-02-21T07:17:27.604Z,99544.00
2019-02-21T07:19:57.412Z,99543.00
2019-02-21T07:22:27.316Z,99535.00
2019-02-21T07:25:02.033Z,99547.00
2019-02-21T07:27:31.850Z,99537.00
2019-02-21T07:30:01.663Z,99542.00
2019-02-21T07:32:31.579Z,99542.00
2019-02-21T07:35:01.402Z,99543.00
2019-02-21T07:37:31.503Z,99535.00
2019-02-21T07:40:01.425Z,99547.00
2019-02-21T07:42:31.208Z,99543.00
2019-02-21T07:45:01.026Z,99545.00
2019-02-21T07:47:30.633Z,99545.00
2019-02-21T07:50:00.442Z,99548.00
2019-02-21T07:52:30.301Z,99552.00
2019-02-21T07:55:02.153Z,99560.00
2019-02-21T07:57:31.551Z,99560.00
2019-02-21T08:00:01.251Z,99553.00
2019-02-21T08:02:32.406Z,99566.00
2019-02-21T08:05:02.496Z,99563.00
2019-02-21T08:07:32.538Z,99568.00
2019-02-21T08:10:03.229Z,99573.00
2019-02-21T08:12:32.987Z,99580.00
2019-02-21T08:15:02.691Z,99565.00
2019-02-21T08:17:32.615Z,99575.00
2019-02-21T08:20:08.408Z,99575.00
2019-02-21T08:22:33.985Z,99567.00
2019-02-21T08:25:03.591Z,99566.00
2019-02-21T08:27:35.225Z,99570.00
2019-02-21T08:30:05.063Z,99563.00
2019-02-21T08:32:53.819Z,99567.00
2019-02-21T08:35:23.962Z,99571.00
2019-02-21T08:37:53.847Z,99573.00
2019-02-21T08:40:25.056Z,99582.00
2019-02-21T08:42:55.246Z,99576.00
2019-02-21T08:45:25.159Z,99578.00
2019-02-21T08:47:55.057Z,99580.00
2019-02-21T08:50:24.981Z,99575.00
2019-02-21T08:52:54.991Z,99570.00
2019-02-21T08:55:24.793Z,99582.00
2019-02-21T08:57:54.805Z,99591.00
2019-02-21T09:00:24.763Z,99591.00
2019-02-21T09:02:54.854Z,99591.00
2019-02-21T09:05:24.666Z,99596.00
2019-02-21T09:07:54.583Z,99595.00
2019-02-21T09:10:24.468Z,99599.00
2019-02-21T09:12:54.389Z,99599.00
2019-02-21T09:15:23.804Z,99612.00
2019-02-21T09:17:55.077Z,99606.00
2019-02-21T09:20:24.692Z,99607.00
2019-02-21T09:22:54.504Z,99608.00
2019-02-21T09:25:24.398Z,99614.00
2019-02-21T09:27:54.572Z,99603.00
2019-02-21T09:30:24.436Z,99613.00
2019-02-21T09:32:54.276Z,99600.00
2019-02-21T09:35:24.369Z,99598.00
2019-02-21T09:37:54.420Z,99592.00
2019-02-21T09:40:24.416Z,99599.00
2019-02-21T09:42:54.260Z,99583.00
2019-02-21T09:45:24.373Z,99591.00
2019-02-21T09:47:53.939Z,99585.00
2019-02-21T09:50:23.566Z,99580.00
2019-02-21T09:52:53.475Z,99588.00
2019-02-21T09:55:24.357Z,99599.00
2019-02-21T09:57:54.228Z,99589.00
2019-02-21T10:00:23.725Z,99585.00
2019-02-21T10:02:56.575Z,99594.00
2019-02-21T10:05:25.281Z,99586.00
2019-02-21T10:07:55.222Z,99597.00
2019-02-21T10:10:25.223Z,99593.00
2019-02-21T10:12:55.150Z,99607.00
2019-02-21T10:15:24.871Z,99608.00
2019-02-21T10:17:55.798Z,99605.00
2019-02-21T10:20:25.589Z,99614.00
2019-02-21T10:22:55.536Z,99613.00
2019-02-21T10:25:27.995Z,99608.00
2019-02-21T10:27:58.964Z,99617.00
2019-02-21T10:30:29.030Z,99619.00
2019-02-21T10:32:58.824Z,99613.00
2019-02-21T10:35:28.719Z,99626.00
2019-02-21T10:37:59.538Z,99615.00
2019-02-21T10:40:29.231Z,99617.00
2019-02-21T10:42:59.355Z,99613.00
2019-02-21T10:45:29.087Z,99606.00
2019-02-21T10:47:58.887Z,99618.00
2019-02-21T10:50:28.815Z,99602.00
2019-02-21T10:53:01.793Z,99602.00
2019-02-21T10:55:31.788Z,99599.00
2019-02-21T10:58:01.626Z,99607.00
2019-02-21T11:00:31.421Z,99604.00
2019-02-21T11:03:01.250Z,99593.00
2019-02-21T11:05:31.061Z,99601.00
2019-02-21T11:08:00.689Z,99597.00
2019-02-21T11:10:30.516Z,99598.00
2019-02-21T11:13:00.376Z,99608.00
2019-02-21T11:15:30.139Z,99603.00
2019-02-21T11:17:59.827Z,99594.00
2019-02-21T11:20:29.872Z,99599.00
2019-02-21T11:22:59.558Z,99600.00
2019-02-21T11:25:29.474Z,99596.00
2019-02-21T11:27:59.294Z,99592.00
2019-02-21T11:30:29.221Z,99597.00
2019-02-21T11:32:59.488Z,99595.00
2019-02-21T11:35:29.341Z,99597.00
2019-02-21T11:37:59.254Z,99587.00
2019-02-21T11:40:29.583Z,99593.00
2019-02-21T11:43:02.503Z,99598.00
2019-02-21T11:45:31.584Z,99603.00
2019-02-21T11:48:01.379Z,99598.00
2019-02-21T11:50:30.959Z,99613.00
2019-02-21T11:53:01.221Z,99607.00
2019-02-21T11:55:31.132Z,99616.00
2019-02-21T11:58:00.841Z,99617.00
2019-02-21T12:00:30.647Z,99610.00
2019-02-21T12:03:00.585Z,99608.00
2019-02-21T12:05:32.344Z,99609.00
2019-02-21T12:08:02.454Z,99602.00
2019-02-21T12:10:32.372Z,99602.00
2019-02-21T12:13:02.168Z,99600.00
2019-02-21T12:15:31.972Z,99600.00
2019-02-21T12:18:01.921Z,99590.00
2019-02-21T12:20:31.940Z,99583.00
2019-02-21T12:23:01.737Z,99580.00
2019-02-21T12:25:31.739Z,99590.00
2019-02-21T12:28:01.274Z,99571.00
2019-02-21T12:30:33.357Z,99582.00
2019-02-21T12:33:04.583Z,99580.00
2019-02-21T12:35:34.470Z,99569.00
2019-02-21T12:38:04.406Z,99578.00
2019-02-21T12:40:34.131Z,99573.00
2019-02-21T12:43:04.079Z,99576.00
2019-02-21T12:45:33.824Z,99574.00
2019-02-21T12:48:03.574Z,99571.00
2019-02-21T12:50:43.699Z,99570.00
2019-02-21T12:53:04.732Z,99564.00
2019-02-21T12:55:34.411Z,99565.00
2019-02-21T12:58:04.152Z,99565.00
2019-02-21T13:00:36.488Z,99569.00
2019-02-21T13:03:05.592Z,99555.00
2019-02-21T13:05:41.005Z,99563.00
2019-02-21T13:08:06.906Z,99556.00
2019-02-21T13:10:36.798Z,99561.00
2019-02-21T13:13:06.575Z,99554.00
2019-02-21T13:15:36.827Z,99549.00
2019-02-21T13:18:15.343Z,99553.00
2019-02-21T13:20:41.247Z,99557.00
2019-02-21T13:23:11.126Z,99540.00
2019-02-21T13:25:41.120Z,99550.00
2019-02-21T13:28:11.018Z,99556.00
2019-02-21T13:30:40.952Z,99551.00
2019-02-21T13:33:10.904Z,99543.00
2019-02-21T13:35:51.842Z,99552.00
2019-02-21T13:38:12.435Z,99549.00
2019-02-21T13:40:42.230Z,99552.00
2019-02-21T13:43:11.877Z,99557.00
2019-02-21T13:45:42.072Z,99547.00
2019-02-21T13:48:12.290Z,99562.00
2019-02-21T13:50:42.229Z,99551.00
2019-02-21T13:53:15.913Z,99553.00
2019-02-21T13:55:45.940Z,99549.00
2019-02-21T13:58:15.846Z,99551.00
2019-02-21T14:00:45.555Z,99560.00
2019-02-21T14:03:15.256Z,99549.00
2019-02-21T14:05:46.093Z,99548.00
2019-02-21T14:08:16.256Z,99562.00
2019-02-21T14:10:46.057Z,99554.00
2019-02-21T14:13:15.939Z,99561.00
2019-02-21T14:15:45.868Z,99563.00
2019-02-21T14:18:15.552Z,99567.00
2019-02-21T14:20:45.845Z,99573.00
2019-02-21T14:23:15.588Z,99566.00
2019-02-21T14:25:45.383Z,99555.00
2019-02-21T14:28:15.019Z,99554.00
2019-02-21T14:30:44.966Z,99552.00
2019-02-21T14:33:17.415Z,99551.00
2019-02-21T14:35:46.528Z,99550.00
2019-02-21T14:38:26.963Z,99547.00
2019-02-21T14:40:48.132Z,99544.00
2019-02-21T14:43:21.510Z,99541.00
2019-02-21T14:45:51.580Z,99543.00
2019-02-21T14:48:21.230Z,99540.00
2019-02-21T14:50:51.146Z,99550.00
2019-02-21T14:53:20.920Z,99553.00
2019-02-21T14:55:50.996Z,99560.00
2019-02-21T14:58:20.756Z,99549.00
2019-02-21T15:00:51.410Z,99546.00
2019-02-21T15:03:22.221Z,99547.00
2019-02-21T15:05:52.603Z,99556.00
2019-02-21T15:08:22.704Z,99540.00
2019-02-21T15:10:53.021Z,99548.00
2019-02-21T15:13:25.543Z,99547.00
2019-02-21T15:15:54.835Z,99553.00
2019-02-21T15:18:26.325Z,99556.00
2019-02-21T15:20:57.714Z,99561.00
2019-02-21T15:23:27.559Z,99554.00
2019-02-21T15:25:58.715Z,99547.00
2019-02-21T15:28:28.983Z,99545.00
2019-02-21T15:30:58.821Z,99543.00
2019-02-21T15:33:28.892Z,99556.00
2019-02-21T15:35:58.617Z,99545.00
2019-02-21T15:38:28.450Z,99545.00
2019-02-21T15:40:58.462Z,99555.00
2019-02-21T15:43:28.268Z,99564.00
2019-02-21T15:45:58.511Z,99563.00
2019-02-21T15:48:28.478Z,99564.00
2019-02-21T15:50:58.539Z,99545.00
2019-02-21T15:53:28.250Z,99554.00
2019-02-21T15:55:58.300Z,99555.00
2019-02-21T15:58:28.204Z,99547.00
2019-02-21T16:00:58.220Z,99550.00
2019-02-21T16:03:28.141Z,99550.00
2019-02-21T16:05:58.642Z,99548.00
2019-02-21T16:08:28.586Z,99555.00
2019-02-21T16:10:58.117Z,99562.00
2019-02-21T16:13:28.082Z,99560.00
2019-02-21T16:15:58.047Z,99554.00
2019-02-21T16:18:28.002Z,99557.00
2019-02-21T16:20:58.008Z,99552.00
2019-02-21T16:23:28.030Z,99538.00
2019-02-21T16:25:57.767Z,99544.00
2019-02-21T16:28:27.704Z,99534.00
2019-02-21T16:30:57.708Z,99542.00
2019-02-21T16:33:27.934Z,99545.00
2019-02-21T16:35:58.010Z,99563.00
2019-02-21T16:38:29.158Z,99561.00
2019-02-21T16:40:58.807Z,99570.00
2019-02-21T16:43:29.260Z,99572.00
2019-02-21T16:46:07.358Z,99565.00
2019-02-21T16:48:31.141Z,99560.00
2019-02-21T16:51:02.220Z,99573.00
2019-02-21T16:53:32.081Z,99574.00
2019-02-21T16:56:03.020Z,99573.00
2019-02-21T16:58:32.683Z,99572.00
2019-02-21T17:01:02.526Z,99579.00
2019-02-21T17:03:32.248Z,99579.00
2019-02-21T17:06:03.568Z,99577.00
2019-02-21T17:08:33.508Z,99588.00
2019-02-21T17:11:03.456Z,99584.00
2019-02-21T17:13:33.359Z,99593.00
2019-02-21T17:16:03.063Z,99584.00
2019-02-21T17:18:32.758Z,99588.00
2019-02-21T17:21:02.826Z,99595.00
2019-02-21T17:23:32.388Z,99592.00
2019-02-21T17:26:02.322Z,99591.00
2019-02-21T17:28:32.126Z,99592.00
2019-02-21T17:31:08.304Z,99598.00
2019-02-21T17:33:38.129Z,99608.00
2019-02-21T17:36:07.924Z,99607.00
2019-02-21T17:38:37.763Z,99605.00
2019-02-21T17:41:07.425Z,99605.00
2019-02-21T17:43:37.557Z,99613.00
2019-02-21T17:46:07.376Z,99616.00
2019-02-21T17:48:37.524Z,99616.00
2019-02-21T17:51:07.308Z,99616.00
2019-02-21T17:53:41.152Z,99626.00
2019-02-21T17:56:11.285Z,99629.00
2019-02-21T17:58:42.515Z,99637.00
2019-02-21T18:01:12.601Z,99635.00
2019-02-21T18:03:42.400Z,99629.00
2019-02-21T18:06:12.225Z,99633.00
2019-02-21T18:08:42.157Z,99639.00
2019-02-21T18:11:12.737Z,99638.00
2019-02-21T18:13:42.474Z,99639.00
2019-02-21T18:16:12.298Z,99640.00
2019-02-21T18:18:42.416Z,99645.00
2019-02-21T18:21:12.147Z,99641.00
2019-02-21T18:23:42.165Z,99645.00
2019-02-21T18:26:18.020Z,99637.00
2019-02-21T18:28:48.194Z,99646.00
2019-02-21T18:31:18.223Z,99641.00
2019-02-21T18:33:48.276Z,99649.00
2019-02-21T18:36:19.115Z,99650.00
2019-02-21T18:38:48.754Z,99652.00
2019-02-21T18:41:18.623Z,99658.00
2019-02-21T18:43:49.633Z,99647.00
2019-02-21T18:46:19.955Z,99652.00
2019-02-21T18:48:51.049Z,99651.00
2019-02-21T18:51:20.872Z,99656.00
2019-02-21T18:53:51.803Z,99654.00
2019-02-21T18:56:21.664Z,99663.00
2019-02-21T18:58:51.327Z,99658.00
2019-02-21T19:01:21.235Z,99665.00
2019-02-21T19:03:51.716Z,99663.00
2019-02-21T19:06:21.812Z,99655.00
2019-02-21T19:08:51.830Z,99649.00
2019-02-21T19:11:22.080Z,99647.00
2019-02-21T19:13:52.978Z,99646.00
2019-02-21T19:16:24.160Z,99645.00
2019-02-21T19:18:54.065Z,99642.00
2019-02-21T19:21:23.714Z,99635.00
2019-02-21T19:23:53.588Z,99643.00
2019-02-21T19:26:23.367Z,99644.00
2019-02-21T19:28:52.971Z,99635.00
2019-02-21T19:31:22.924Z,99641.00
2019-02-21T19:33:52.554Z,99632.00
2019-02-21T19:36:22.399Z,99630.00
2019-02-21T19:38:53.657Z,99629.00
2019-02-21T19:41:23.377Z,99645.00
2019-02-21T19:43:53.343Z,99641.00
2019-02-21T19:46:23.229Z,99646.00
2019-02-21T19:48:53.059Z,99646.00
2019-02-21T19:51:22.936Z,99644.00
2019-02-21T19:53:52.905Z,99643.00
2019-02-21T19:56:22.851Z,99653.00
2019-02-21T19:58:52.808Z,99649.00
2019-02-21T20:01:22.692Z,99641.00
2019-02-21T20:03:52.728Z,99643.00
2019-02-21T20:06:24.773Z,99642.00
2019-02-21T20:08:55.609Z,99650.00
2019-02-21T20:11:28.616Z,99642.00
2019-02-21T20:13:58.245Z,99640.00
2019-02-21T20:16:27.927Z,99647.00
2019-02-21T20:18:57.574Z,99647.00
2019-02-21T20:21:29.135Z,99651.00
2019-02-21T20:23:58.927Z,99645.00
2019-02-21T20:26:28.835Z,99644.00
2019-02-21T20:28:58.955Z,99646.00
2019-02-21T20:31:28.586Z,99643.00
2019-02-21T20:33:58.668Z,99652.00
2019-02-21T20:36:28.201Z,99655.00
2019-02-21T20:38:58.217Z,99664.00
2019-02-21T20:41:28.225Z,99661.00
2019-02-21T20:43:58.450Z,99661.00
2019-02-21T20:46:28.350Z,99657.00
2019-02-21T20:49:01.415Z,99665.00
2019-02-21T20:51:31.243Z,99672.00
2019-02-21T20:54:00.783Z,99667.00
2019-02-21T20:56:30.889Z,99659.00
2019-02-21T20:59:02.036Z,99672.00
2019-02-21T21:01:31.949Z,99669.00
2019-02-21T21:04:02.086Z,99671.00
2019-02-21T21:06:32.810Z,99671.00
2019-02-21T21:09:02.526Z,99673.00
2019-02-21T21:11:32.754Z,99674.00
2019-02-21T21:14:02.619Z,99682.00
2019-02-21T21:16:32.583Z,99679.00
2019-02-21T21:19:05.873Z,99686.00
2019-02-21T21:21:35.584Z,99675.00
2019-02-21T21:24:06.172Z,99680.00
2019-02-21T21:26:35.926Z,99678.00
2019-02-21T21:29:05.726Z,99674.00
2019-02-21T21:31:37.164Z,99672.00
2019-02-21T21:34:07.249Z,99688.00
2019-02-21T21:36:38.630Z,99677.00
2019-02-21T21:39:08.822Z,99672.00
2019-02-21T21:43:55.419Z,99662.00
2019-02-21T21:46:25.320Z,99676.00
2019-02-21T21:48:55.011Z,99678.00
2019-02-21T21:51:25.182Z,99679.00
2019-02-21T21:53:55.160Z,99679.00
2019-02-21T21:56:24.885Z,99670.00
2019-02-21T21:58:54.645Z,99670.00
2019-02-21T22:01:25.774Z,99665.00
2019-02-21T22:03:56.619Z,99680.00
2019-02-21T22:06:26.698Z,99670.00
2019-02-21T22:09:04.480Z,99674.00
2019-02-21T22:11:27.868Z,99669.00
2019-02-21T22:13:57.777Z,99671.00
2019-02-21T22:16:27.720Z,99660.00
2019-02-21T22:18:57.400Z,99661.00
2019-02-21T22:21:27.133Z,99657.00
2019-02-21T22:23:56.902Z,99658.00
2019-02-21T22:26:26.748Z,99664.00
2019-02-21T22:28:56.657Z,99658.00
2019-02-21T22:31:26.688Z,99655.00
2019-02-21T22:33:56.600Z,99654.00
2019-02-21T22:36:27.825Z,99663.00
2019-02-21T22:38:57.569Z,99659.00
2019-02-21T22:41:28.157Z,99665.00
2019-02-21T22:43:58.114Z,99671.00
2019-02-21T22:46:27.839Z,99676.00
2019-02-21T22:48:57.611Z,99671.00
2019-02-21T22:51:28.582Z,99672.00
2019-02-21T22:53:58.339Z,99662.00
2019-02-21T22:56:28.531Z,99661.00
2019-02-21T22:58:58.532Z,99663.00
2019-02-21T23:01:39.801Z,99657.00
2019-02-21T23:04:48.808Z,99660.00
2019-02-21T23:07:55.845Z,99660.00
2019-02-21T23:10:25.638Z,99663.00
2019-02-21T23:12:55.596Z,99665.00
2019-02-21T23:15:25.385Z,99668.00
2019-02-21T23:17:55.262Z,99661.00
2019-02-21T23:20:24.890Z,99665.00
2019-02-21T23:22:54.784Z,99665.00
2019-02-21T23:25:24.484Z,99662.00
2019-02-21T23:27:54.429Z,99658.00
2019-02-21T23:30:24.248Z,99657.00
2019-02-21T23:32:54.066Z,99644.00
2019-02-21T23:35:23.764Z,99657.00
2019-02-21T23:37:53.517Z,99651.00
2019-02-21T23:40:23.772Z,99667.00
2019-02-21T23:42:53.551Z,99661.00
2019-02-21T23:45:23.326Z,99664.00
2019-02-21T23:47:53.242Z,99653.00
2019-02-21T23:50:23.067Z,99661.00
2019-02-21T23:52:52.855Z,99665.00
2019-02-21T23:55:23.007Z,99661.00
2019-02-21T23:57:52.696Z,99661.00
